Impacts TAF Board INFO
FOR SITUATIONAL AWARENESS. NOT TO BE USED FOR FLIGHT PLANNING PURPOSES.
IDs:

KJAN - Jackson/Evers Intl, MS, US

Issued at 0520 UTC 22 Jul 2018
Updated at 0825 UTC 22 Jul 2018
Potential Impact None Slight Moderate High
Time0754Z 22/09Z 22/10Z 22/11Z 22/12Z 22/13Z 22/14Z 22/15Z 22/16Z 22/17Z 22/18Z 22/19Z 22/20Z 22/21Z>>
Type OBS PRVL PRVL PRVL PRVL PRVL PRVL PRVL PRVL PRVL PRVL PRVL PRVL PRVL
VIS 10 >6 >6 >6 >6 >6 >6 >6 >6 >6 >6 >6 >6 >6
CIG -- -- -- -- -- -- -- -- -- -- -- -- -- --
Cover CLR SCT SCT SCT SCT SCT SKC SKC SKC SKC SKC SKC SKC SKC
FltCat VFR VFR VFR VFR VFR VFR VFR VFR VFR VFR VFR VFR VFR VFR
WX -- -- -- -- -- -- -- -- -- -- -- -- -- --
WDir 250 240 240 240 240 240 300 300 300 300 300 300 300 300
WSpd 4 3 3 3 3 3 11 11 11 11 11 11 11 11
WGst -- -- -- -- -- -- 18 18 18 18 18 18 18 18

Raw TAF
KJAN 220520Z 2206/2306 24003KT P6SM SCT150
  FM221400 30011G18KT P6SM SKC
  FM230100 VRB03KT P6SM SKC


Raw METAR
KJAN 220754Z 25004KT 10SM CLR 27/23 A2986 RMK AO2 SLP105 T02720228
KJAN 220654Z 25004KT 10SM CLR 28/23 A2986 RMK AO2 SLP106 T02780228
KJAN 220554Z 22004KT 10SM SCT080 SCT100 28/24 A2986 RMK AO2 SLP108 T02780239 10328 20272 403440244 58003

METAR Board
Radar Display
Forecast Discussion

FOR SITUATIONAL AWARENESS. NOT TO BE USED FOR FLIGHT PLANNING PURPOSES.